Sand Ridge, Illinois
Current Conditions -  °F | °C
As of 1:52 PM on Monday 22 Dec 2014 (Local Time) from KMDH Reporting Station
Overcast Overcast  
Wind Chill: 50°   Ceiling: 900
Heat Index: 50°   Visibility: 10mi
Dew Point: 47°   Wind: 12mph
Humidity: 89%   Direction: 160°SSE
Pressure: 29.63"   Gusts: NA
Location:  37.7438°N, 89.4409°W
Report Text: KMDH 221952Z 16010KT 10SM OVC009 10/08 A2963 RMK AO2 RAE51 SLP033 P0002 T01000083
Loading
Personal Weather Stations






























Interactive Weather Map New forecast layout! Learn more

10-Day Weather Forecast

Advertisements
Track Severe Weather on mobile